sensor_id;sensor_type;location;lat;lon;timestamp;temperature;humidity
50758;DHT22;36732;47.980;11.652;2023-01-25T00:00:37;5.50;67.30
50758;DHT22;36732;47.980;11.652;2023-01-25T00:03:03;5.50;67.30
50758;DHT22;36732;47.980;11.652;2023-01-25T00:05:29;5.50;67.20
50758;DHT22;36732;47.980;11.652;2023-01-25T00:07:54;5.50;67.00
50758;DHT22;36732;47.980;11.652;2023-01-25T00:10:20;5.50;67.00
50758;DHT22;36732;47.980;11.652;2023-01-25T00:12:46;5.50;67.00
50758;DHT22;36732;47.980;11.652;2023-01-25T00:15:11;5.50;67.00
50758;DHT22;36732;47.980;11.652;2023-01-25T00:17:37;5.50;67.00
50758;DHT22;36732;47.980;11.652;2023-01-25T00:20:03;5.50;67.70
50758;DHT22;36732;47.980;11.652;2023-01-25T00:22:29;5.50;67.00
50758;DHT22;36732;47.980;11.652;2023-01-25T00:24:55;5.50;67.00
50758;DHT22;36732;47.980;11.652;2023-01-25T00:27:21;5.50;67.10
50758;DHT22;36732;47.980;11.652;2023-01-25T00:29:47;5.50;67.20
50758;DHT22;36732;47.980;11.652;2023-01-25T00:39:42;5.50;67.20
50758;DHT22;36732;47.980;11.652;2023-01-25T00:42:09;5.50;67.20
50758;DHT22;36732;47.980;11.652;2023-01-25T00:44:36;5.50;67.10
50758;DHT22;36732;47.980;11.652;2023-01-25T00:47:02;5.50;67.00
50758;DHT22;36732;47.980;11.652;2023-01-25T00:49:29;5.50;67.00
50758;DHT22;36732;47.980;11.652;2023-01-25T00:51:56;5.50;67.00
50758;DHT22;36732;47.980;11.652;2023-01-25T00:54:22;5.50;67.00
50758;DHT22;36732;47.980;11.652;2023-01-25T00:56:48;5.50;67.00
50758;DHT22;36732;47.980;11.652;2023-01-25T00:59:17;5.50;67.00
50758;DHT22;36732;47.980;11.652;2023-01-25T01:01:43;5.50;67.00
50758;DHT22;36732;47.980;11.652;2023-01-25T01:04:09;5.50;67.00
50758;DHT22;36732;47.980;11.652;2023-01-25T01:06:36;5.50;67.00
50758;DHT22;36732;47.980;11.652;2023-01-25T01:09:05;5.50;67.00
50758;DHT22;36732;47.980;11.652;2023-01-25T01:11:31;5.50;66.90
50758;DHT22;36732;47.980;11.652;2023-01-25T01:13:58;5.50;67.00
50758;DHT22;36732;47.980;11.652;2023-01-25T01:16:24;5.50;66.90
50758;DHT22;36732;47.980;11.652;2023-01-25T01:18:50;5.50;66.90
50758;DHT22;36732;47.980;11.652;2023-01-25T01:21:16;5.50;66.80
50758;DHT22;36732;47.980;11.652;2023-01-25T01:23:41;5.50;66.80
50758;DHT22;36732;47.980;11.652;2023-01-25T01:26:10;5.50;66.70
50758;DHT22;36732;47.980;11.652;2023-01-25T01:28:36;5.50;67.30
50758;DHT22;36732;47.980;11.652;2023-01-25T01:31:10;5.50;66.70
50758;DHT22;36732;47.980;11.652;2023-01-25T01:33:40;5.40;66.70
50758;DHT22;36732;47.980;11.652;2023-01-25T01:36:16;5.40;66.80
50758;DHT22;36732;47.980;11.652;2023-01-25T01:38:42;5.40;66.90
50758;DHT22;36732;47.980;11.652;2023-01-25T01:41:09;5.40;66.80
50758;DHT22;36732;47.980;11.652;2023-01-25T01:43:36;5.50;66.90
50758;DHT22;36732;47.980;11.652;2023-01-25T01:46:26;5.50;66.80
50758;DHT22;36732;47.980;11.652;2023-01-25T01:49:23;5.50;66.70
50758;DHT22;36732;47.980;11.652;2023-01-25T01:57:12;5.50;66.60
50758;DHT22;36732;47.980;11.652;2023-01-25T01:59:48;5.40;66.60
50758;DHT22;36732;47.980;11.652;2023-01-25T02:02:16;5.40;66.50
50758;DHT22;36732;47.980;11.652;2023-01-25T02:04:45;5.40;66.60
50758;DHT22;36732;47.980;11.652;2023-01-25T02:07:32;5.40;66.60
50758;DHT22;36732;47.980;11.652;2023-01-25T02:10:00;5.40;66.50
50758;DHT22;36732;47.980;11.652;2023-01-25T02:12:27;5.40;66.40
50758;DHT22;36732;47.980;11.652;2023-01-25T02:14:54;5.40;66.50
50758;DHT22;36732;47.980;11.652;2023-01-25T02:17:34;5.40;66.60
50758;DHT22;36732;47.980;11.652;2023-01-25T02:26:02;5.40;66.50
50758;DHT22;36732;47.980;11.652;2023-01-25T02:28:37;5.40;66.50
50758;DHT22;36732;47.980;11.652;2023-01-25T02:31:04;5.30;66.50
50758;DHT22;36732;47.980;11.652;2023-01-25T02:33:30;5.30;66.60
50758;DHT22;36732;47.980;11.652;2023-01-25T02:36:17;5.30;66.60
50758;DHT22;36732;47.980;11.652;2023-01-25T02:41:37;5.30;66.60
50758;DHT22;36732;47.980;11.652;2023-01-25T02:44:07;5.30;66.50
50758;DHT22;36732;47.980;11.652;2023-01-25T02:46:36;5.30;66.50
50758;DHT22;36732;47.980;11.652;2023-01-25T02:49:05;5.30;66.50
50758;DHT22;36732;47.980;11.652;2023-01-25T02:51:34;5.30;66.60
50758;DHT22;36732;47.980;11.652;2023-01-25T02:54:02;5.30;66.60
50758;DHT22;36732;47.980;11.652;2023-01-25T02:56:29;5.30;66.60
50758;DHT22;36732;47.980;11.652;2023-01-25T02:58:55;5.30;66.60
50758;DHT22;36732;47.980;11.652;2023-01-25T03:01:21;5.30;66.60
50758;DHT22;36732;47.980;11.652;2023-01-25T03:03:46;5.30;66.70
50758;DHT22;36732;47.980;11.652;2023-01-25T03:06:12;5.30;66.70
50758;DHT22;36732;47.980;11.652;2023-01-25T03:08:38;5.30;66.70
50758;DHT22;36732;47.980;11.652;2023-01-25T03:11:05;5.30;66.70
50758;DHT22;36732;47.980;11.652;2023-01-25T03:13:32;5.30;66.70
50758;DHT22;36732;47.980;11.652;2023-01-25T03:16:04;5.40;66.80
50758;DHT22;36732;47.980;11.652;2023-01-25T03:18:32;5.40;66.50
50758;DHT22;36732;47.980;11.652;2023-01-25T03:21:06;5.40;66.40
50758;DHT22;36732;47.980;11.652;2023-01-25T03:23:32;5.30;66.40
50758;DHT22;36732;47.980;11.652;2023-01-25T03:28:38;5.30;66.40
50758;DHT22;36732;47.980;11.652;2023-01-25T03:31:04;5.30;66.50
50758;DHT22;36732;47.980;11.652;2023-01-25T03:33:31;5.30;66.60
50758;DHT22;36732;47.980;11.652;2023-01-25T03:35:56;5.30;66.50
50758;DHT22;36732;47.980;11.652;2023-01-25T03:38:22;5.30;66.60
50758;DHT22;36732;47.980;11.652;2023-01-25T03:40:48;5.30;66.60
50758;DHT22;36732;47.980;11.652;2023-01-25T03:43:14;5.40;66.60
50758;DHT22;36732;47.980;11.652;2023-01-25T03:45:40;5.40;66.60
50758;DHT22;36732;47.980;11.652;2023-01-25T03:48:06;5.40;66.50
50758;DHT22;36732;47.980;11.652;2023-01-25T03:50:32;5.30;66.30
50758;DHT22;36732;47.980;11.652;2023-01-25T03:52:58;5.40;66.30
50758;DHT22;36732;47.980;11.652;2023-01-25T03:55:30;5.30;66.20
50758;DHT22;36732;47.980;11.652;2023-01-25T03:57:56;5.30;66.30
50758;DHT22;36732;47.980;11.652;2023-01-25T04:00:22;5.30;66.40
50758;DHT22;36732;47.980;11.652;2023-01-25T04:02:48;5.30;66.50
50758;DHT22;36732;47.980;11.652;2023-01-25T04:05:14;5.30;66.60
50758;DHT22;36732;47.980;11.652;2023-01-25T04:07:39;5.30;66.40
50758;DHT22;36732;47.980;11.652;2023-01-25T04:10:05;5.30;66.50
50758;DHT22;36732;47.980;11.652;2023-01-25T04:12:31;5.30;66.50
50758;DHT22;36732;47.980;11.652;2023-01-25T04:14:57;5.30;66.50
50758;DHT22;36732;47.980;11.652;2023-01-25T04:17:23;5.30;66.40
50758;DHT22;36732;47.980;11.652;2023-01-25T04:19:48;5.30;66.40
50758;DHT22;36732;47.980;11.652;2023-01-25T04:22:14;5.30;66.50
50758;DHT22;36732;47.980;11.652;2023-01-25T04:24:41;5.30;66.60
50758;DHT22;36732;47.980;11.652;2023-01-25T04:27:07;5.30;66.60
50758;DHT22;36732;47.980;11.652;2023-01-25T04:29:34;5.30;66.60
50758;DHT22;36732;47.980;11.652;2023-01-25T04:32:00;5.30;66.60
50758;DHT22;36732;47.980;11.652;2023-01-25T04:34:26;5.30;66.60
50758;DHT22;36732;47.980;11.652;2023-01-25T04:36:51;5.30;66.60
50758;DHT22;36732;47.980;11.652;2023-01-25T04:39:18;5.30;66.60
50758;DHT22;36732;47.980;11.652;2023-01-25T04:41:44;5.30;66.60
50758;DHT22;36732;47.980;11.652;2023-01-25T04:44:09;5.30;66.60
50758;DHT22;36732;47.980;11.652;2023-01-25T04:46:35;5.30;66.60
50758;DHT22;36732;47.980;11.652;2023-01-25T04:49:01;5.30;66.60
50758;DHT22;36732;47.980;11.652;2023-01-25T04:51:27;5.30;66.50
50758;DHT22;36732;47.980;11.652;2023-01-25T04:53:52;5.30;66.50
50758;DHT22;36732;47.980;11.652;2023-01-25T04:56:18;5.30;66.40
50758;DHT22;36732;47.980;11.652;2023-01-25T04:58:44;5.30;66.30
50758;DHT22;36732;47.980;11.652;2023-01-25T05:01:10;5.30;66.30
50758;DHT22;36732;47.980;11.652;2023-01-25T05:03:35;5.30;66.40
50758;DHT22;36732;47.980;11.652;2023-01-25T05:06:01;5.30;66.30
50758;DHT22;36732;47.980;11.652;2023-01-25T05:08:27;5.30;66.40
50758;DHT22;36732;47.980;11.652;2023-01-25T05:10:52;5.30;66.30
50758;DHT22;36732;47.980;11.652;2023-01-25T05:13:18;5.30;66.40
50758;DHT22;36732;47.980;11.652;2023-01-25T05:18:12;5.30;66.40
50758;DHT22;36732;47.980;11.652;2023-01-25T05:20:37;5.30;66.40
50758;DHT22;36732;47.980;11.652;2023-01-25T05:23:03;5.30;66.40
50758;DHT22;36732;47.980;11.652;2023-01-25T05:25:29;5.30;66.30
50758;DHT22;36732;47.980;11.652;2023-01-25T05:28:13;5.30;66.30
50758;DHT22;36732;47.980;11.652;2023-01-25T05:30:39;5.30;66.20
50758;DHT22;36732;47.980;11.652;2023-01-25T05:33:04;5.30;66.30
50758;DHT22;36732;47.980;11.652;2023-01-25T05:35:31;5.30;66.20
50758;DHT22;36732;47.980;11.652;2023-01-25T05:37:57;5.30;66.20
50758;DHT22;36732;47.980;11.652;2023-01-25T05:40:27;5.30;66.30
50758;DHT22;36732;47.980;11.652;2023-01-25T05:42:56;5.30;66.30
50758;DHT22;36732;47.980;11.652;2023-01-25T05:45:22;5.30;66.40
50758;DHT22;36732;47.980;11.652;2023-01-25T05:47:55;5.30;66.30
50758;DHT22;36732;47.980;11.652;2023-01-25T05:50:23;5.30;66.80
50758;DHT22;36732;47.980;11.652;2023-01-25T05:52:49;5.30;66.20
50758;DHT22;36732;47.980;11.652;2023-01-25T05:55:15;5.30;66.00
50758;DHT22;36732;47.980;11.652;2023-01-25T05:57:41;5.30;66.10
50758;DHT22;36732;47.980;11.652;2023-01-25T06:00:08;5.30;66.10
50758;DHT22;36732;47.980;11.652;2023-01-25T06:02:34;5.30;66.10
50758;DHT22;36732;47.980;11.652;2023-01-25T06:05:01;5.30;66.20
50758;DHT22;36732;47.980;11.652;2023-01-25T06:07:27;5.30;66.10
50758;DHT22;36732;47.980;11.652;2023-01-25T06:09:53;5.30;66.10
50758;DHT22;36732;47.980;11.652;2023-01-25T06:12:20;5.30;66.10
50758;DHT22;36732;47.980;11.652;2023-01-25T06:14:46;5.30;66.10
50758;DHT22;36732;47.980;11.652;2023-01-25T06:17:12;5.20;66.00
50758;DHT22;36732;47.980;11.652;2023-01-25T06:19:38;5.30;66.20
50758;DHT22;36732;47.980;11.652;2023-01-25T06:22:04;5.20;65.90
50758;DHT22;36732;47.980;11.652;2023-01-25T06:24:32;5.20;65.90
50758;DHT22;36732;47.980;11.652;2023-01-25T06:26:58;5.20;65.90
50758;DHT22;36732;47.980;11.652;2023-01-25T06:29:23;5.20;65.90
50758;DHT22;36732;47.980;11.652;2023-01-25T06:31:49;5.20;65.80
50758;DHT22;36732;47.980;11.652;2023-01-25T06:34:15;5.20;65.80
50758;DHT22;36732;47.980;11.652;2023-01-25T06:36:41;5.20;65.80
50758;DHT22;36732;47.980;11.652;2023-01-25T06:39:07;5.10;65.80
50758;DHT22;36732;47.980;11.652;2023-01-25T06:41:33;5.20;65.90
50758;DHT22;36732;47.980;11.652;2023-01-25T06:43:59;5.20;65.70
50758;DHT22;36732;47.980;11.652;2023-01-25T06:46:24;5.10;65.70
50758;DHT22;36732;47.980;11.652;2023-01-25T06:48:50;5.20;65.80
50758;DHT22;36732;47.980;11.652;2023-01-25T06:51:16;5.20;65.80
50758;DHT22;36732;47.980;11.652;2023-01-25T06:53:44;5.10;65.80
50758;DHT22;36732;47.980;11.652;2023-01-25T06:56:12;5.10;65.80
50758;DHT22;36732;47.980;11.652;2023-01-25T06:58:43;5.10;65.80
50758;DHT22;36732;47.980;11.652;2023-01-25T07:01:15;5.10;65.80
50758;DHT22;36732;47.980;11.652;2023-01-25T07:03:47;5.10;65.70
50758;DHT22;36732;47.980;11.652;2023-01-25T07:06:14;5.10;65.60
50758;DHT22;36732;47.980;11.652;2023-01-25T07:08:40;5.10;65.60
50758;DHT22;36732;47.980;11.652;2023-01-25T07:11:08;5.10;65.60
50758;DHT22;36732;47.980;11.652;2023-01-25T07:13:38;5.10;65.60
50758;DHT22;36732;47.980;11.652;2023-01-25T07:16:06;5.10;65.60
50758;DHT22;36732;47.980;11.652;2023-01-25T07:18:35;5.10;65.70
50758;DHT22;36732;47.980;11.652;2023-01-25T07:21:07;5.10;65.70
50758;DHT22;36732;47.980;11.652;2023-01-25T07:23:34;5.10;65.70
50758;DHT22;36732;47.980;11.652;2023-01-25T07:26:02;5.10;65.60
50758;DHT22;36732;47.980;11.652;2023-01-25T07:28:30;5.10;66.20
50758;DHT22;36732;47.980;11.652;2023-01-25T07:31:03;5.10;65.50
50758;DHT22;36732;47.980;11.652;2023-01-25T07:33:32;5.10;65.50
50758;DHT22;36732;47.980;11.652;2023-01-25T07:36:03;5.10;65.50
50758;DHT22;36732;47.980;11.652;2023-01-25T07:38:30;5.10;65.40
50758;DHT22;36732;47.980;11.652;2023-01-25T07:40:55;5.00;65.40
50758;DHT22;36732;47.980;11.652;2023-01-25T07:43:22;5.10;65.50
50758;DHT22;36732;47.980;11.652;2023-01-25T07:45:48;5.00;65.40
50758;DHT22;36732;47.980;11.652;2023-01-25T07:48:15;5.00;65.40
50758;DHT22;36732;47.980;11.652;2023-01-25T07:50:41;5.00;65.50
50758;DHT22;36732;47.980;11.652;2023-01-25T07:53:11;5.00;65.50
50758;DHT22;36732;47.980;11.652;2023-01-25T07:55:38;5.00;65.50
50758;DHT22;36732;47.980;11.652;2023-01-25T07:58:04;5.00;65.40
50758;DHT22;36732;47.980;11.652;2023-01-25T08:00:30;5.00;65.50
50758;DHT22;36732;47.980;11.652;2023-01-25T08:02:55;5.00;65.40
50758;DHT22;36732;47.980;11.652;2023-01-25T08:05:21;5.00;65.40
50758;DHT22;36732;47.980;11.652;2023-01-25T08:07:47;5.00;65.50
50758;DHT22;36732;47.980;11.652;2023-01-25T08:10:13;5.00;65.60
50758;DHT22;36732;47.980;11.652;2023-01-25T08:12:39;5.00;65.60
50758;DHT22;36732;47.980;11.652;2023-01-25T08:15:09;5.00;65.60
50758;DHT22;36732;47.980;11.652;2023-01-25T08:17:35;5.00;65.60
50758;DHT22;36732;47.980;11.652;2023-01-25T08:20:01;5.00;65.50
50758;DHT22;36732;47.980;11.652;2023-01-25T08:22:28;5.00;65.50
50758;DHT22;36732;47.980;11.652;2023-01-25T08:24:54;5.00;65.50
50758;DHT22;36732;47.980;11.652;2023-01-25T08:27:21;5.00;65.50
50758;DHT22;36732;47.980;11.652;2023-01-25T08:29:47;5.00;65.60
50758;DHT22;36732;47.980;11.652;2023-01-25T08:32:15;5.00;65.60
50758;DHT22;36732;47.980;11.652;2023-01-25T08:34:41;5.00;65.80
50758;DHT22;36732;47.980;11.652;2023-01-25T08:37:07;5.00;66.00
50758;DHT22;36732;47.980;11.652;2023-01-25T08:39:32;5.00;66.10
50758;DHT22;36732;47.980;11.652;2023-01-25T08:41:58;5.00;66.10
50758;DHT22;36732;47.980;11.652;2023-01-25T08:44:24;5.10;66.10
50758;DHT22;36732;47.980;11.652;2023-01-25T08:46:51;5.00;66.00
50758;DHT22;36732;47.980;11.652;2023-01-25T08:49:16;5.10;66.10
50758;DHT22;36732;47.980;11.652;2023-01-25T08:51:42;5.00;66.10
50758;DHT22;36732;47.980;11.652;2023-01-25T08:54:11;5.10;66.20
50758;DHT22;36732;47.980;11.652;2023-01-25T08:56:38;5.10;66.10
50758;DHT22;36732;47.980;11.652;2023-01-25T08:59:05;5.10;66.10
50758;DHT22;36732;47.980;11.652;2023-01-25T09:01:32;5.10;66.10
50758;DHT22;36732;47.980;11.652;2023-01-25T09:03:58;5.10;66.10
50758;DHT22;36732;47.980;11.652;2023-01-25T09:06:23;5.10;66.80
50758;DHT22;36732;47.980;11.652;2023-01-25T09:08:49;5.10;66.10
50758;DHT22;36732;47.980;11.652;2023-01-25T09:11:17;5.10;66.10
50758;DHT22;36732;47.980;11.652;2023-01-25T09:13:44;5.10;66.10
50758;DHT22;36732;47.980;11.652;2023-01-25T09:16:13;5.20;66.10
50758;DHT22;36732;47.980;11.652;2023-01-25T09:18:41;5.20;66.20
50758;DHT22;36732;47.980;11.652;2023-01-25T09:21:26;5.10;66.10
50758;DHT22;36732;47.980;11.652;2023-01-25T09:23:53;5.10;65.90
50758;DHT22;36732;47.980;11.652;2023-01-25T09:26:19;5.20;65.90
50758;DHT22;36732;47.980;11.652;2023-01-25T09:28:50;5.20;65.90
50758;DHT22;36732;47.980;11.652;2023-01-25T09:31:17;5.20;65.90
50758;DHT22;36732;47.980;11.652;2023-01-25T09:33:43;5.20;65.90
50758;DHT22;36732;47.980;11.652;2023-01-25T09:36:09;5.20;66.00
50758;DHT22;36732;47.980;11.652;2023-01-25T09:38:35;5.20;66.10
50758;DHT22;36732;47.980;11.652;2023-01-25T09:46:42;5.20;65.90
50758;DHT22;36732;47.980;11.652;2023-01-25T09:54:59;5.20;65.70
50758;DHT22;36732;47.980;11.652;2023-01-25T09:57:32;5.20;65.70
50758;DHT22;36732;47.980;11.652;2023-01-25T10:00:05;5.20;65.70
50758;DHT22;36732;47.980;11.652;2023-01-25T10:05:29;5.20;65.90
50758;DHT22;36732;47.980;11.652;2023-01-25T10:12:55;5.20;65.90
50758;DHT22;36732;47.980;11.652;2023-01-25T10:15:24;5.20;65.90
50758;DHT22;36732;47.980;11.652;2023-01-25T10:20:57;5.20;65.90
50758;DHT22;36732;47.980;11.652;2023-01-25T10:26:32;5.20;65.80
50758;DHT22;36732;47.980;11.652;2023-01-25T10:29:18;5.20;65.80
50758;DHT22;36732;47.980;11.652;2023-01-25T10:34:48;5.20;65.70
50758;DHT22;36732;47.980;11.652;2023-01-25T10:37:21;5.20;65.60
50758;DHT22;36732;47.980;11.652;2023-01-25T10:40:44;5.20;65.70
50758;DHT22;36732;47.980;11.652;2023-01-25T10:43:05;5.20;65.60
50758;DHT22;36732;47.980;11.652;2023-01-25T10:45:32;5.20;65.60
50758;DHT22;36732;47.980;11.652;2023-01-25T10:48:01;5.20;65.60
50758;DHT22;36732;47.980;11.652;2023-01-25T10:58:49;5.20;65.90
50758;DHT22;36732;47.980;11.652;2023-01-25T11:03:54;5.20;65.90
50758;DHT22;36732;47.980;11.652;2023-01-25T11:06:36;5.20;65.70
50758;DHT22;36732;47.980;11.652;2023-01-25T11:09:29;5.20;65.80
50758;DHT22;36732;47.980;11.652;2023-01-25T11:14:35;5.20;65.90
50758;DHT22;36732;47.980;11.652;2023-01-25T11:17:04;5.20;65.80
50758;DHT22;36732;47.980;11.652;2023-01-25T11:19:38;5.20;65.90
50758;DHT22;36732;47.980;11.652;2023-01-25T11:24:44;5.20;65.90
50758;DHT22;36732;47.980;11.652;2023-01-25T11:27:28;5.20;65.90
50758;DHT22;36732;47.980;11.652;2023-01-25T11:32:32;5.20;65.90
50758;DHT22;36732;47.980;11.652;2023-01-25T11:34:58;5.30;65.70
50758;DHT22;36732;47.980;11.652;2023-01-25T11:37:45;5.30;65.70
50758;DHT22;36732;47.980;11.652;2023-01-25T11:40:46;5.30;65.90
50758;DHT22;36732;47.980;11.652;2023-01-25T11:52:08;5.20;65.40
50758;DHT22;36732;47.980;11.652;2023-01-25T11:54:47;5.20;65.40
50758;DHT22;36732;47.980;11.652;2023-01-25T12:00:12;5.10;65.20
50758;DHT22;36732;47.980;11.652;2023-01-25T12:09:41;5.10;65.30
50758;DHT22;36732;47.980;11.652;2023-01-25T12:30:03;5.10;65.90
50758;DHT22;36732;47.980;11.652;2023-01-25T12:32:48;5.10;65.80
50758;DHT22;36732;47.980;11.652;2023-01-25T12:35:23;5.10;65.80
50758;DHT22;36732;47.980;11.652;2023-01-25T12:37:58;5.10;65.90
50758;DHT22;36732;47.980;11.652;2023-01-25T12:40:51;5.20;65.90
50758;DHT22;36732;47.980;11.652;2023-01-25T12:43:32;5.10;65.90
50758;DHT22;36732;47.980;11.652;2023-01-25T12:46:12;5.20;65.70
50758;DHT22;36732;47.980;11.652;2023-01-25T12:48:44;5.20;65.70
50758;DHT22;36732;47.980;11.652;2023-01-25T12:51:14;5.20;65.70
50758;DHT22;36732;47.980;11.652;2023-01-25T12:53:50;5.20;65.80
50758;DHT22;36732;47.980;11.652;2023-01-25T12:56:39;5.20;65.80
50758;DHT22;36732;47.980;11.652;2023-01-25T13:02:13;5.20;65.60
50758;DHT22;36732;47.980;11.652;2023-01-25T13:08:10;5.20;65.50
50758;DHT22;36732;47.980;11.652;2023-01-25T13:10:49;5.20;65.50
50758;DHT22;36732;47.980;11.652;2023-01-25T13:13:26;5.20;65.40
50758;DHT22;36732;47.980;11.652;2023-01-25T13:15:53;5.20;65.30
50758;DHT22;36732;47.980;11.652;2023-01-25T13:20:56;5.20;65.30
50758;DHT22;36732;47.980;11.652;2023-01-25T13:23:42;5.20;65.30
50758;DHT22;36732;47.980;11.652;2023-01-25T13:28:46;5.20;65.20
50758;DHT22;36732;47.980;11.652;2023-01-25T13:37:29;5.20;65.30
50758;DHT22;36732;47.980;11.652;2023-01-25T13:40:26;5.20;65.20
50758;DHT22;36732;47.980;11.652;2023-01-25T13:43:04;5.20;65.10
50758;DHT22;36732;47.980;11.652;2023-01-25T13:45:40;5.20;65.10
50758;DHT22;36732;47.980;11.652;2023-01-25T13:48:13;5.20;65.10
50758;DHT22;36732;47.980;11.652;2023-01-25T13:50:50;5.20;65.00
50758;DHT22;36732;47.980;11.652;2023-01-25T13:53:22;5.20;65.00
50758;DHT22;36732;47.980;11.652;2023-01-25T13:55:53;5.20;65.00
50758;DHT22;36732;47.980;11.652;2023-01-25T13:58:27;5.20;65.00
50758;DHT22;36732;47.980;11.652;2023-01-25T14:01:13;5.20;64.80
50758;DHT22;36732;47.980;11.652;2023-01-25T14:06:32;5.20;65.40
50758;DHT22;36732;47.980;11.652;2023-01-25T14:09:03;5.20;64.80
50758;DHT22;36732;47.980;11.652;2023-01-25T14:11:52;5.20;64.90
50758;DHT22;36732;47.980;11.652;2023-01-25T14:14:34;5.10;64.80
50758;DHT22;36732;47.980;11.652;2023-01-25T14:17:15;5.10;64.90
50758;DHT22;36732;47.980;11.652;2023-01-25T14:19:45;5.10;65.00
50758;DHT22;36732;47.980;11.652;2023-01-25T14:22:26;5.10;65.10
50758;DHT22;36732;47.980;11.652;2023-01-25T14:27:50;5.10;65.10
50758;DHT22;36732;47.980;11.652;2023-01-25T14:30:26;5.10;65.00
50758;DHT22;36732;47.980;11.652;2023-01-25T14:32:58;5.10;65.00
50758;DHT22;36732;47.980;11.652;2023-01-25T14:35:33;5.10;65.00
50758;DHT22;36732;47.980;11.652;2023-01-25T14:38:04;5.10;65.10
50758;DHT22;36732;47.980;11.652;2023-01-25T14:40:45;5.10;65.70
50758;DHT22;36732;47.980;11.652;2023-01-25T14:43:11;5.10;64.80
50758;DHT22;36732;47.980;11.652;2023-01-25T14:45:37;5.10;64.80
50758;DHT22;36732;47.980;11.652;2023-01-25T14:48:03;5.10;64.80
50758;DHT22;36732;47.980;11.652;2023-01-25T14:53:19;5.10;64.70
50758;DHT22;36732;47.980;11.652;2023-01-25T14:55:47;5.10;64.80
50758;DHT22;36732;47.980;11.652;2023-01-25T14:58:23;5.10;64.80
50758;DHT22;36732;47.980;11.652;2023-01-25T15:00:58;5.10;64.80
50758;DHT22;36732;47.980;11.652;2023-01-25T15:03:25;5.10;64.80
50758;DHT22;36732;47.980;11.652;2023-01-25T15:05:53;5.10;64.90
50758;DHT22;36732;47.980;11.652;2023-01-25T15:08:28;5.10;64.80
50758;DHT22;36732;47.980;11.652;2023-01-25T15:10:56;5.10;64.60
50758;DHT22;36732;47.980;11.652;2023-01-25T15:13:43;5.10;64.60
50758;DHT22;36732;47.980;11.652;2023-01-25T15:16:09;5.10;64.60
50758;DHT22;36732;47.980;11.652;2023-01-25T15:18:51;5.00;64.60
50758;DHT22;36732;47.980;11.652;2023-01-25T15:23:51;5.10;64.60
50758;DHT22;36732;47.980;11.652;2023-01-25T15:28:49;5.00;64.60
50758;DHT22;36732;47.980;11.652;2023-01-25T15:31:19;5.00;64.50
50758;DHT22;36732;47.980;11.652;2023-01-25T15:33:46;5.00;64.50
50758;DHT22;36732;47.980;11.652;2023-01-25T15:36:13;5.00;64.60
50758;DHT22;36732;47.980;11.652;2023-01-25T15:38:39;5.00;64.60
50758;DHT22;36732;47.980;11.652;2023-01-25T15:41:06;5.00;64.60
50758;DHT22;36732;47.980;11.652;2023-01-25T15:43:31;5.00;64.70
50758;DHT22;36732;47.980;11.652;2023-01-25T15:45:58;5.00;64.70
50758;DHT22;36732;47.980;11.652;2023-01-25T15:48:42;5.00;64.80
50758;DHT22;36732;47.980;11.652;2023-01-25T15:51:11;5.00;64.80
50758;DHT22;36732;47.980;11.652;2023-01-25T15:53:37;5.00;64.80
50758;DHT22;36732;47.980;11.652;2023-01-25T15:56:08;5.00;64.80
50758;DHT22;36732;47.980;11.652;2023-01-25T15:58:50;5.00;64.80
50758;DHT22;36732;47.980;11.652;2023-01-25T16:01:18;5.00;64.80
50758;DHT22;36732;47.980;11.652;2023-01-25T16:03:44;5.00;64.80
50758;DHT22;36732;47.980;11.652;2023-01-25T16:06:48;5.00;64.80
50758;DHT22;36732;47.980;11.652;2023-01-25T16:09:26;5.00;64.70
50758;DHT22;36732;47.980;11.652;2023-01-25T16:11:56;5.00;64.70
50758;DHT22;36732;47.980;11.652;2023-01-25T16:14:25;5.00;64.70
50758;DHT22;36732;47.980;11.652;2023-01-25T16:16:54;5.00;64.70
50758;DHT22;36732;47.980;11.652;2023-01-25T16:19:23;5.00;64.70
50758;DHT22;36732;47.980;11.652;2023-01-25T16:21:49;5.00;64.60
50758;DHT22;36732;47.980;11.652;2023-01-25T16:24:16;5.00;64.60
50758;DHT22;36732;47.980;11.652;2023-01-25T16:26:45;5.00;64.60
50758;DHT22;36732;47.980;11.652;2023-01-25T16:29:12;5.00;64.60
50758;DHT22;36732;47.980;11.652;2023-01-25T16:31:39;5.00;64.60
50758;DHT22;36732;47.980;11.652;2023-01-25T16:34:05;5.00;64.50
50758;DHT22;36732;47.980;11.652;2023-01-25T16:36:31;5.00;64.40
50758;DHT22;36732;47.980;11.652;2023-01-25T16:39:07;5.00;64.40
50758;DHT22;36732;47.980;11.652;2023-01-25T16:41:37;5.00;64.30
50758;DHT22;36732;47.980;11.652;2023-01-25T16:44:02;5.00;64.30
50758;DHT22;36732;47.980;11.652;2023-01-25T16:46:28;5.00;64.40
50758;DHT22;36732;47.980;11.652;2023-01-25T16:48:56;5.00;64.40
50758;DHT22;36732;47.980;11.652;2023-01-25T16:51:25;5.00;64.30
50758;DHT22;36732;47.980;11.652;2023-01-25T16:53:53;5.00;64.30
50758;DHT22;36732;47.980;11.652;2023-01-25T16:56:27;5.00;64.50
50758;DHT22;36732;47.980;11.652;2023-01-25T16:58:56;5.00;65.30
50758;DHT22;36732;47.980;11.652;2023-01-25T17:01:24;5.00;64.80
50758;DHT22;36732;47.980;11.652;2023-01-25T17:03:50;5.00;64.90
50758;DHT22;36732;47.980;11.652;2023-01-25T17:06:18;5.00;64.80
50758;DHT22;36732;47.980;11.652;2023-01-25T17:08:46;5.00;64.90
50758;DHT22;36732;47.980;11.652;2023-01-25T17:11:13;5.00;65.00
50758;DHT22;36732;47.980;11.652;2023-01-25T17:13:40;5.00;64.90
50758;DHT22;36732;47.980;11.652;2023-01-25T17:16:06;5.00;65.00
50758;DHT22;36732;47.980;11.652;2023-01-25T17:18:32;5.10;65.70
50758;DHT22;36732;47.980;11.652;2023-01-25T17:20:59;5.10;65.00
50758;DHT22;36732;47.980;11.652;2023-01-25T17:23:26;5.10;64.90
50758;DHT22;36732;47.980;11.652;2023-01-25T17:25:54;5.10;64.80
50758;DHT22;36732;47.980;11.652;2023-01-25T17:28:20;5.10;64.70
50758;DHT22;36732;47.980;11.652;2023-01-25T17:30:46;5.10;64.70
50758;DHT22;36732;47.980;11.652;2023-01-25T17:33:12;5.20;64.60
50758;DHT22;36732;47.980;11.652;2023-01-25T17:35:39;5.10;64.50
50758;DHT22;36732;47.980;11.652;2023-01-25T17:38:05;5.20;64.50
50758;DHT22;36732;47.980;11.652;2023-01-25T17:40:34;5.10;64.50
50758;DHT22;36732;47.980;11.652;2023-01-25T17:43:01;5.20;64.50
50758;DHT22;36732;47.980;11.652;2023-01-25T17:45:27;5.20;64.50
50758;DHT22;36732;47.980;11.652;2023-01-25T17:47:53;5.20;64.40
50758;DHT22;36732;47.980;11.652;2023-01-25T17:50:19;5.20;64.40
50758;DHT22;36732;47.980;11.652;2023-01-25T17:52:45;5.20;64.30
50758;DHT22;36732;47.980;11.652;2023-01-25T17:55:10;5.20;64.40
50758;DHT22;36732;47.980;11.652;2023-01-25T17:57:36;5.20;64.20
50758;DHT22;36732;47.980;11.652;2023-01-25T18:00:06;5.20;64.20
50758;DHT22;36732;47.980;11.652;2023-01-25T18:02:35;5.20;64.20
50758;DHT22;36732;47.980;11.652;2023-01-25T18:05:01;5.30;64.30